Time;durP1;ratioP1;P1;durP2;ratioP2;P2;SDS_P1;SDS_P2;PMS_P1;PMS_P2;Temp;Humidity;BMP_temperature;BMP_pressure;BME280_temperature;BME280_humidity;BME280_pressure;Samples;Min_cycle;Max_cycle;Signal;HPM_P1;HPM_P2
2021/07/15 00:02:21;;;;;;;4.78;1.30;;;20.70;92.60;;;;;;4898347;29;20483;-65
2021/07/15 00:04:47;;;;;;;3.75;1.30;;;20.70;92.60;;;;;;4898279;29;20032;-65
2021/07/15 00:07:14;;;;;;;5.85;1.40;;;20.70;92.60;;;;;;4881152;29;20115;-65
2021/07/15 00:09:42;;;;;;;5.88;1.33;;;20.70;92.50;;;;;;4898175;29;20067;-66
2021/07/15 00:12:11;;;;;;;5.85;1.40;;;20.70;92.50;;;;;;4898239;29;20399;-66
2021/07/15 00:14:36;;;;;;;6.03;1.40;;;20.70;92.60;;;;;;4880985;29;20479;-65
2021/07/15 00:17:04;;;;;;;3.42;1.13;;;20.70;92.60;;;;;;4898088;29;20036;-65
2021/07/15 00:19:29;;;;;;;5.35;1.48;;;20.70;92.60;;;;;;4897918;29;20514;-66
2021/07/15 00:21:57;;;;;;;5.38;1.60;;;20.70;92.60;;;;;;4897996;29;20021;-65
2021/07/15 00:24:26;;;;;;;7.00;1.20;;;20.70;92.50;;;;;;4880789;29;20036;-65
2021/07/15 00:26:52;;;;;;;8.13;1.77;;;20.70;92.50;;;;;;4897511;29;20043;-63
2021/07/15 00:29:19;;;;;;;4.15;1.27;;;20.70;92.50;;;;;;4881073;29;20504;-66
2021/07/15 00:31:45;;;;;;;4.20;1.15;;;20.70;92.50;;;;;;4879190;29;20415;-66
2021/07/15 00:34:10;;;;;;;4.55;1.70;;;20.70;92.50;;;;;;4894618;29;20032;-65
2021/07/15 00:36:36;;;;;;;5.90;1.23;;;20.70;92.50;;;;;;4875659;29;20033;-65
2021/07/15 00:39:04;;;;;;;3.90;1.30;;;20.70;92.50;;;;;;4868151;29;20562;-65
2021/07/15 00:41:29;;;;;;;5.50;1.60;;;20.70;92.50;;;;;;4896927;29;20021;-65
2021/07/15 00:43:55;;;;;;;5.38;1.50;;;20.70;92.50;;;;;;4897681;29;20532;-62
2021/07/15 00:46:21;;;;;;;6.63;1.40;;;20.70;92.50;;;;;;4880337;29;20044;-65
2021/07/15 00:48:46;;;;;;;4.13;1.33;;;20.70;92.50;;;;;;4879842;29;20032;-65
2021/07/15 00:51:12;;;;;;;5.00;1.50;;;20.70;92.50;;;;;;4897682;29;20032;-66
2021/07/15 00:53:38;;;;;;;5.95;1.40;;;20.70;92.40;;;;;;4897289;29;20434;-65
2021/07/15 00:56:04;;;;;;;4.88;1.45;;;20.70;92.40;;;;;;4896523;29;20768;-66
2021/07/15 00:58:30;;;;;;;5.78;1.48;;;20.70;92.40;;;;;;4897601;29;20024;-66
2021/07/15 01:00:56;;;;;;;6.55;1.40;;;20.70;92.40;;;;;;4880697;29;20471;-66
2021/07/15 01:03:22;;;;;;;5.47;1.30;;;20.70;92.40;;;;;;4897360;29;20048;-66
2021/07/15 01:05:50;;;;;;;4.18;1.40;;;20.70;92.40;;;;;;4879599;29;20517;-66
2021/07/15 01:08:16;;;;;;;10.40;1.63;;;20.70;92.40;;;;;;4896963;29;20462;-65
2021/07/15 01:11:05;;;;;;;7.22;1.33;;;20.70;92.40;;;;;;4880270;29;20036;-66
2021/07/15 01:13:50;;;;;;;4.55;1.45;;;20.70;92.40;;;;;;4897111;29;20036;-65
2021/07/15 01:16:31;;;;;;;6.93;1.65;;;20.70;92.40;;;;;;4896669;29;20052;-66
2021/07/15 01:18:56;;;;;;;5.80;1.33;;;20.70;92.40;;;;;;4880267;29;20032;-65
2021/07/15 01:21:57;;;;;;;5.75;1.60;;;20.70;92.30;;;;;;4897127;29;20028;-66
2021/07/15 01:24:25;;;;;;;5.57;1.70;;;20.70;92.30;;;;;;4889357;29;20021;-65
2021/07/15 01:27:00;;;;;;;6.95;1.50;;;20.70;92.40;;;;;;4896712;29;20056;-65
2021/07/15 01:29:47;;;;;;;4.82;1.20;;;20.70;92.40;;;;;;4880196;29;20036;-66
2021/07/15 01:32:15;;;;;;;5.75;1.58;;;20.70;92.40;;;;;;4896137;29;20029;-66
2021/07/15 01:34:42;;;;;;;6.63;1.38;;;20.70;92.40;;;;;;4896399;29;20036;-66
2021/07/15 01:37:08;;;;;;;7.55;1.70;;;20.60;92.30;;;;;;4896526;29;20497;-66
2021/07/15 01:39:36;;;;;;;8.98;2.08;;;20.70;92.40;;;;;;4896586;29;20028;-66
2021/07/15 01:42:08;;;;;;;11.10;1.70;;;20.60;92.40;;;;;;4879327;29;20222;-67
2021/07/15 01:44:34;;;;;;;8.65;1.80;;;20.60;92.30;;;;;;4896350;29;20080;-66
2021/07/15 01:47:01;;;;;;;6.25;1.50;;;20.60;92.30;;;;;;4879792;29;20128;-66
2021/07/15 01:49:28;;;;;;;6.18;1.23;;;20.60;92.30;;;;;;4896211;29;20029;-65
2021/07/15 01:51:55;;;;;;;6.43;1.60;;;20.60;92.30;;;;;;4879426;29;20036;-65
2021/07/15 01:54:22;;;;;;;3.95;1.30;;;20.70;92.30;;;;;;4885595;29;20036;-67
2021/07/15 01:56:49;;;;;;;9.63;1.70;;;20.70;92.30;;;;;;4879304;29;20025;-67
2021/07/15 01:59:18;;;;;;;6.22;1.25;;;20.60;92.30;;;;;;4896633;29;20079;-65
2021/07/15 02:01:47;;;;;;;4.70;1.40;;;20.60;92.20;;;;;;4896536;29;20032;-65
2021/07/15 02:04:14;;;;;;;5.50;1.30;;;20.60;92.30;;;;;;4878622;29;20505;-65
2021/07/15 02:06:47;;;;;;;9.77;1.40;;;20.60;92.20;;;;;;4896024;29;20036;-67
2021/07/15 02:09:13;;;;;;;8.23;1.33;;;20.60;92.20;;;;;;4896444;29;20050;-65
2021/07/15 02:11:41;;;;;;;9.63;1.60;;;20.60;92.30;;;;;;4896112;29;20040;-65
2021/07/15 02:14:13;;;;;;;10.38;1.63;;;20.60;92.30;;;;;;4896162;29;20032;-65
2021/07/15 02:16:48;;;;;;;7.80;1.60;;;20.60;92.20;;;;;;4879266;29;20052;-66
2021/07/15 02:19:15;;;;;;;4.78;1.42;;;20.60;92.30;;;;;;4896177;29;20084;-66
2021/07/15 02:21:41;;;;;;;6.25;1.52;;;20.60;92.20;;;;;;4893852;29;20036;-65
2021/07/15 02:24:10;;;;;;;7.75;1.80;;;20.60;92.30;;;;;;4901548;29;20088;-65
2021/07/15 02:26:38;;;;;;;7.90;1.80;;;20.60;92.20;;;;;;4886065;29;20033;-64
2021/07/15 02:29:05;;;;;;;5.38;1.30;;;20.60;92.20;;;;;;4896379;29;20491;-65
2021/07/15 02:31:41;;;;;;;4.38;1.30;;;20.60;92.20;;;;;;4875769;29;20033;-66
2021/07/15 02:34:12;;;;;;;7.78;1.45;;;20.60;92.20;;;;;;4878624;29;20387;-64
2021/07/15 02:36:39;;;;;;;8.25;1.30;;;20.60;92.20;;;;;;4879335;29;20028;-66
2021/07/15 02:39:06;;;;;;;5.68;1.75;;;20.60;92.20;;;;;;4896185;29;20036;-65
2021/07/15 02:41:31;;;;;;;5.50;1.42;;;20.60;92.20;;;;;;4896158;29;20040;-65
2021/07/15 02:43:57;;;;;;;6.50;1.40;;;20.60;92.20;;;;;;4896307;29;20390;-65
2021/07/15 02:46:23;;;;;;;4.25;1.48;;;20.60;92.20;;;;;;4896024;29;20028;-65
2021/07/15 02:48:49;;;;;;;4.50;1.48;;;20.60;92.20;;;;;;4879437;29;20679;-65
2021/07/15 02:51:14;;;;;;;6.57;1.80;;;20.60;92.20;;;;;;4879160;29;20032;-65
2021/07/15 02:53:40;;;;;;;8.27;1.73;;;20.60;92.20;;;;;;4895859;29;20051;-66
2021/07/15 02:56:36;;;;;;;9.18;1.42;;;20.60;92.20;;;;;;4878671;29;20398;-65
2021/07/15 02:59:18;;;;;;;4.32;1.70;;;20.60;92.10;;;;;;4895724;29;20563;-66
2021/07/15 03:01:50;;;;;;;8.27;1.50;;;20.50;92.10;;;;;;4888836;29;20173;-66
2021/07/15 03:04:25;;;;;;;5.32;1.50;;;20.50;92.10;;;;;;4895931;29;20435;-65
2021/07/15 03:06:52;;;;;;;5.82;1.58;;;20.60;92.10;;;;;;4879405;29;20080;-66
2021/07/15 03:09:30;;;;;;;5.90;1.35;;;20.60;92.10;;;;;;4879020;29;20104;-65
2021/07/15 03:12:15;;;;;;;9.77;1.50;;;20.60;92.10;;;;;;4897998;29;20039;-64
2021/07/15 03:14:45;;;;;;;4.10;1.40;;;20.50;92.00;;;;;;4899193;29;20047;-65
2021/07/15 03:17:14;;;;;;;6.93;1.38;;;20.60;92.10;;;;;;4882032;29;20025;-66
2021/07/15 03:19:43;;;;;;;4.07;1.40;;;20.60;92.10;;;;;;4891515;29;20084;-66
2021/07/15 03:22:10;;;;;;;4.82;1.40;;;20.50;92.00;;;;;;4898938;29;20036;-66
2021/07/15 03:24:43;;;;;;;9.00;1.58;;;20.50;92.00;;;;;;4898910;29;20061;-65
2021/07/15 03:27:09;;;;;;;3.13;1.23;;;20.60;92.10;;;;;;4898646;29;20119;-65
2021/07/15 03:29:36;;;;;;;4.65;1.58;;;20.60;92.10;;;;;;4898962;29;20107;-65
2021/07/15 03:32:05;;;;;;;4.80;1.50;;;20.50;92.10;;;;;;4898741;29;20111;-64
2021/07/15 03:34:33;;;;;;;3.85;1.33;;;20.50;92.10;;;;;;4881641;29;20045;-66
2021/07/15 03:37:00;;;;;;;5.32;1.20;;;20.50;92.00;;;;;;4881517;29;20028;-66
2021/07/15 03:39:26;;;;;;;8.65;1.42;;;20.50;92.00;;;;;;4898354;29;20082;-65
2021/07/15 03:41:52;;;;;;;9.10;1.65;;;20.50;92.00;;;;;;4881649;29;20033;-65
2021/07/15 03:44:18;;;;;;;4.85;1.30;;;20.50;92.00;;;;;;4898264;29;20618;-66
2021/07/15 03:46:45;;;;;;;6.20;1.45;;;20.50;92.00;;;;;;4880040;29;20040;-66
2021/07/15 03:49:15;;;;;;;8.25;1.50;;;20.60;92.10;;;;;;4897702;29;20395;-65
2021/07/15 03:51:42;;;;;;;4.00;1.23;;;20.50;92.00;;;;;;4898367;29;20035;-65
2021/07/15 03:54:08;;;;;;;8.38;1.60;;;20.50;92.00;;;;;;4898635;29;20028;-65
2021/07/15 03:56:36;;;;;;;5.25;1.42;;;20.50;92.00;;;;;;4898104;29;20550;-65
2021/07/15 03:59:02;;;;;;;6.65;1.30;;;20.50;92.00;;;;;;4898587;29;20535;-65
2021/07/15 04:01:31;;;;;;;5.85;1.42;;;20.50;92.00;;;;;;4898119;29;20495;-65
2021/07/15 04:03:58;;;;;;;9.55;1.60;;;20.50;92.00;;;;;;4898481;29;20042;-65
2021/07/15 04:06:27;;;;;;;6.22;1.50;;;20.50;92.00;;;;;;4897836;29;20119;-65
2021/07/15 04:08:53;;;;;;;8.82;1.88;;;20.50;91.90;;;;;;4898545;29;20044;-66
2021/07/15 04:11:21;;;;;;;5.20;1.60;;;20.50;92.00;;;;;;4898078;29;20423;-66
2021/07/15 04:13:47;;;;;;;6.35;1.52;;;20.50;92.00;;;;;;4897135;29;20028;-65
2021/07/15 04:16:22;;;;;;;5.72;1.50;;;20.50;92.00;;;;;;4880758;29;20514;-66
2021/07/15 04:18:53;;;;;;;5.60;1.30;;;20.50;92.00;;;;;;4881458;29;20036;-66
2021/07/15 04:21:19;;;;;;;5.65;1.30;;;20.50;92.00;;;;;;4897531;29;20021;-66
2021/07/15 04:23:47;;;;;;;6.00;1.40;;;20.50;92.10;;;;;;4899752;29;20028;-66
2021/07/15 04:26:14;;;;;;;4.40;1.50;;;20.50;92.10;;;;;;4914303;29;20032;-66
2021/07/15 04:28:40;;;;;;;5.50;1.50;;;20.50;92.20;;;;;;4894734;29;20040;-65
2021/07/15 04:31:33;;;;;;;3.85;1.30;;;20.60;92.20;;;;;;4891750;29;20399;-65
2021/07/15 04:34:00;;;;;;;5.97;1.65;;;20.50;92.20;;;;;;4875471;29;20040;-66
2021/07/15 04:36:31;;;;;;;3.63;1.52;;;20.50;92.30;;;;;;4881642;29;20119;-64
2021/07/15 04:38:59;;;;;;;4.80;1.50;;;20.50;92.30;;;;;;4889047;29;20395;-65
2021/07/15 04:41:26;;;;;;;3.25;1.30;;;20.50;92.30;;;;;;4896986;29;20380;-65
2021/07/15 04:43:52;;;;;;;2.15;1.20;;;20.50;92.40;;;;;;4877730;29;20040;-65
2021/07/15 04:46:19;;;;;;;5.53;1.35;;;20.50;92.50;;;;;;4865130;29;20033;-66
2021/07/15 04:48:46;;;;;;;3.67;1.27;;;20.50;92.50;;;;;;4897462;29;20037;-65
2021/07/15 04:51:15;;;;;;;8.20;1.50;;;20.50;92.50;;;;;;4897220;29;20059;-65
2021/07/15 04:53:42;;;;;;;5.00;1.50;;;20.60;92.60;;;;;;4897123;29;20371;-65
2021/07/15 04:56:10;;;;;;;3.70;1.30;;;20.50;92.50;;;;;;4880496;29;20025;-69
2021/07/15 04:58:36;;;;;;;3.63;1.52;;;20.50;92.60;;;;;;4897291;29;20032;-64
2021/07/15 05:01:03;;;;;;;8.75;1.50;;;20.50;92.60;;;;;;4886768;29;20040;-67
2021/07/15 05:03:34;;;;;;;5.95;1.95;;;20.50;92.60;;;;;;4871730;29;20036;-64
2021/07/15 05:06:01;;;;;;;3.33;1.40;;;20.50;92.60;;;;;;4873461;29;20039;-66
2021/07/15 05:08:27;;;;;;;6.25;1.73;;;20.60;92.80;;;;;;4873438;29;20044;-66
2021/07/15 05:10:54;;;;;;;7.13;1.70;;;20.60;92.80;;;;;;4891010;29;20043;-65
2021/07/15 05:13:19;;;;;;;7.22;1.90;;;20.50;92.80;;;;;;4873842;29;20110;-66
2021/07/15 05:15:46;;;;;;;4.43;1.52;;;20.60;92.80;;;;;;4898125;29;20483;-65
2021/07/15 05:18:12;;;;;;;4.60;1.60;;;20.60;92.80;;;;;;4892212;29;20033;-65
2021/07/15 05:20:38;;;;;;;6.25;1.50;;;20.60;92.80;;;;;;4892544;29;20031;-65
2021/07/15 05:23:03;;;;;;;4.47;1.55;;;20.60;92.80;;;;;;4899458;29;20033;-66
2021/07/15 05:25:29;;;;;;;5.38;1.63;;;20.60;92.80;;;;;;4893462;29;20029;-64
2021/07/15 05:27:54;;;;;;;6.50;1.60;;;20.60;92.80;;;;;;4908028;29;20454;-65
2021/07/15 05:30:20;;;;;;;4.93;1.23;;;20.60;92.70;;;;;;4903657;29;20521;-65
2021/07/15 05:32:45;;;;;;;6.60;1.80;;;20.60;92.80;;;;;;4882389;29;20542;-65
2021/07/15 05:35:11;;;;;;;6.90;1.70;;;20.60;92.70;;;;;;4888797;29;20582;-66
2021/07/15 05:37:38;;;;;;;8.50;1.60;;;20.60;92.60;;;;;;4889024;29;20407;-64
2021/07/15 05:40:04;;;;;;;6.20;1.60;;;20.60;92.60;;;;;;4889473;29;20029;-62
2021/07/15 05:42:30;;;;;;;6.32;1.73;;;20.70;92.60;;;;;;4889424;29;20483;-65
2021/07/15 05:44:56;;;;;;;7.30;1.30;;;20.60;92.70;;;;;;4890673;29;20060;-63
2021/07/15 05:47:21;;;;;;;4.28;1.42;;;20.60;92.70;;;;;;4891060;29;20545;-65
2021/07/15 05:49:47;;;;;;;7.43;1.70;;;20.60;92.70;;;;;;4890984;29;20270;-67
2021/07/15 05:52:13;;;;;;;4.65;1.30;;;20.60;92.70;;;;;;4873754;29;20032;-66
2021/07/15 05:54:39;;;;;;;5.07;1.25;;;20.60;92.70;;;;;;4889461;29;20253;-66
2021/07/15 05:57:06;;;;;;;5.15;1.48;;;20.60;92.60;;;;;;4890362;29;20028;-66
2021/07/15 05:59:35;;;;;;;6.40;1.95;;;20.70;92.70;;;;;;4873614;29;20040;-64
2021/07/15 06:02:01;;;;;;;5.47;1.58;;;20.70;92.90;;;;;;4892237;29;20037;-66
2021/07/15 06:04:27;;;;;;;5.60;1.55;;;20.70;93.00;;;;;;4873502;29;20167;-65
2021/07/15 06:06:53;;;;;;;6.07;1.50;;;20.70;93.00;;;;;;4873182;29;20886;-64
2021/07/15 06:09:18;;;;;;;6.57;1.40;;;20.70;93.00;;;;;;4890082;29;20048;-65
2021/07/15 06:11:44;;;;;;;7.07;1.35;;;20.70;92.90;;;;;;4890890;29;20115;-66
2021/07/15 06:14:09;;;;;;;4.57;1.30;;;20.70;92.90;;;;;;4887951;29;20036;-65
2021/07/15 06:16:35;;;;;;;6.25;1.30;;;20.70;92.60;;;;;;4895594;29;20029;-65
2021/07/15 06:19:02;;;;;;;4.90;1.27;;;20.70;92.70;;;;;;4895233;29;20076;-65
2021/07/15 06:21:27;;;;;;;3.78;1.02;;;20.70;92.60;;;;;;4896634;29;20025;-65
2021/07/15 06:23:53;;;;;;;3.35;1.23;;;20.70;92.60;;;;;;4895788;29;20080;-64
2021/07/15 06:26:19;;;;;;;3.80;1.50;;;20.80;92.60;;;;;;4896092;29;20048;-65
2021/07/15 06:28:45;;;;;;;5.90;1.45;;;20.80;92.60;;;;;;4896842;29;20036;-65
2021/07/15 06:31:11;;;;;;;7.22;1.60;;;20.80;92.50;;;;;;4879660;29;20499;-65
2021/07/15 06:33:38;;;;;;;7.30;1.95;;;20.80;92.50;;;;;;4896404;29;20097;-66
2021/07/15 06:36:05;;;;;;;4.90;1.52;;;20.80;92.40;;;;;;4879281;29;20085;-65
2021/07/15 06:38:33;;;;;;;5.20;2.17;;;20.80;92.40;;;;;;4879515;29;20076;-65
2021/07/15 06:41:01;;;;;;;9.35;2.00;;;20.90;92.30;;;;;;4896225;29;20039;-64
2021/07/15 06:43:27;;;;;;;5.47;1.63;;;20.90;92.20;;;;;;4879517;29;20025;-65
2021/07/15 06:45:53;;;;;;;7.22;2.30;;;20.90;92.00;;;;;;4896858;29;20541;-66
2021/07/15 06:48:19;;;;;;;5.47;1.40;;;21.00;91.90;;;;;;4899910;29;20486;-65
2021/07/15 06:50:44;;;;;;;4.70;1.55;;;21.00;91.50;;;;;;4899922;29;20037;-65
2021/07/15 06:53:10;;;;;;;10.40;2.13;;;21.10;91.10;;;;;;4899664;29;20036;-64
2021/07/15 06:55:36;;;;;;;4.40;1.33;;;21.10;91.30;;;;;;4899462;29;20036;-65
2021/07/15 06:58:01;;;;;;;5.60;1.60;;;21.20;90.90;;;;;;4899787;29;20028;-65
2021/07/15 07:00:27;;;;;;;4.57;1.60;;;21.30;90.20;;;;;;4898728;29;20024;-65
2021/07/15 07:02:53;;;;;;;6.53;1.45;;;21.40;90.00;;;;;;4882115;29;20499;-64
2021/07/15 07:05:19;;;;;;;5.18;1.67;;;21.50;89.20;;;;;;4899156;29;20479;-66
2021/07/15 07:07:47;;;;;;;6.68;1.55;;;21.50;88.40;;;;;;4899408;29;20040;-65
2021/07/15 07:10:14;;;;;;;7.85;1.92;;;21.60;88.10;;;;;;4899673;29;20024;-65
2021/07/15 07:12:40;;;;;;;6.43;1.90;;;21.70;88.30;;;;;;4899506;29;20035;-65
2021/07/15 07:15:12;;;;;;;5.05;1.70;;;21.90;86.50;;;;;;4899129;29;20041;-65
2021/07/15 07:17:38;;;;;;;7.88;1.88;;;21.90;86.40;;;;;;4882664;29;20406;-66
2021/07/15 07:20:06;;;;;;;5.63;1.60;;;22.00;85.60;;;;;;4899416;29;20100;-65
2021/07/15 07:22:31;;;;;;;9.00;1.67;;;22.00;85.30;;;;;;4898967;29;20039;-65
2021/07/15 07:24:57;;;;;;;5.43;1.55;;;22.00;85.10;;;;;;4899151;29;20029;-65
2021/07/15 07:27:22;;;;;;;4.57;1.50;;;22.10;85.00;;;;;;4899208;29;20028;-66
2021/07/15 07:29:48;;;;;;;5.15;1.50;;;22.00;84.30;;;;;;4899338;29;20440;-66
2021/07/15 07:32:13;;;;;;;5.57;1.60;;;22.00;84.40;;;;;;4899322;29;20447;-66
2021/07/15 07:34:39;;;;;;;4.70;1.58;;;22.00;84.30;;;;;;4881965;29;20024;-66
2021/07/15 07:37:05;;;;;;;3.08;1.63;;;22.00;84.60;;;;;;4882275;29;20028;-66
2021/07/15 07:39:30;;;;;;;3.30;1.67;;;22.10;83.30;;;;;;4899088;29;20125;-66
2021/07/15 07:41:56;;;;;;;3.78;1.70;;;22.10;83.20;;;;;;4899032;29;20376;-66
2021/07/15 07:44:21;;;;;;;5.22;1.80;;;22.20;82.90;;;;;;4898768;29;20051;-64
2021/07/15 07:46:47;;;;;;;4.43;1.85;;;22.30;81.80;;;;;;4898914;29;20395;-66
2021/07/15 07:49:12;;;;;;;4.32;1.75;;;22.40;81.90;;;;;;4898777;29;20037;-66
2021/07/15 07:51:38;;;;;;;5.15;1.95;;;22.60;81.50;;;;;;4898931;29;20511;-66
2021/07/15 07:54:04;;;;;;;5.75;2.20;;;22.60;81.00;;;;;;4881930;29;20032;-64
2021/07/15 07:56:31;;;;;;;4.72;1.90;;;22.70;80.90;;;;;;4881292;29;20403;-66
2021/07/15 07:58:56;;;;;;;7.00;1.83;;;22.80;80.70;;;;;;4881921;29;20020;-65
2021/07/15 08:01:22;;;;;;;5.68;1.98;;;22.90;79.70;;;;;;4881833;29;20044;-65
2021/07/15 08:03:47;;;;;;;4.88;1.80;;;22.90;80.00;;;;;;4898590;29;20035;-66
2021/07/15 08:06:14;;;;;;;6.43;1.85;;;22.80;80.10;;;;;;4898223;29;20039;-66
2021/07/15 08:08:40;;;;;;;4.43;1.88;;;22.80;79.80;;;;;;4898481;29;20028;-65
2021/07/15 08:11:06;;;;;;;7.20;1.67;;;22.90;79.10;;;;;;4898489;29;20040;-65
2021/07/15 08:13:33;;;;;;;4.20;1.80;;;23.00;78.30;;;;;;4898411;29;20060;-65
2021/07/15 08:15:58;;;;;;;3.30;1.42;;;23.10;78.00;;;;;;4881501;29;20390;-66
2021/07/15 08:18:24;;;;;;;4.15;1.73;;;23.00;77.40;;;;;;4898339;29;20029;-66
2021/07/15 08:20:50;;;;;;;3.88;1.40;;;22.80;77.80;;;;;;4898401;29;20023;-65
2021/07/15 08:23:16;;;;;;;2.70;1.30;;;22.80;78.10;;;;;;4898009;29;20036;-65
2021/07/15 08:25:42;;;;;;;4.93;1.50;;;22.80;78.30;;;;;;4897893;29;20036;-65
2021/07/15 08:28:07;;;;;;;2.53;1.27;;;22.80;78.60;;;;;;4898165;29;20033;-65
2021/07/15 08:30:33;;;;;;;3.13;1.52;;;22.80;79.10;;;;;;4881294;29;20116;-65
2021/07/15 08:32:59;;;;;;;1.60;1.00;;;22.70;78.40;;;;;;4897622;29;20037;-63
2021/07/15 08:35:28;;;;;;;3.10;1.40;;;22.80;79.20;;;;;;4880119;29;20123;-66
2021/07/15 08:37:57;;;;;;;2.88;1.33;;;22.80;78.60;;;;;;4880953;29;20160;-65
2021/07/15 08:40:23;;;;;;;2.40;1.20;;;22.80;78.90;;;;;;4880180;29;20391;-64
2021/07/15 08:42:49;;;;;;;3.17;1.40;;;22.80;79.00;;;;;;4897541;29;20502;-64
2021/07/15 08:45:15;;;;;;;3.35;1.20;;;22.90;79.20;;;;;;4897189;29;20069;-65
2021/07/15 08:47:42;;;;;;;3.55;1.40;;;22.90;79.20;;;;;;4897484;29;20040;-65
2021/07/15 08:50:16;;;;;;;3.33;1.23;;;22.90;79.30;;;;;;4897832;29;20032;-66
2021/07/15 08:52:42;;;;;;;2.22;1.20;;;22.90;79.40;;;;;;4880921;29;20028;-65
2021/07/15 08:57:36;;;;;;;2.72;1.40;;;22.90;79.20;;;;;;4897605;29;20036;-65
2021/07/15 09:00:03;;;;;;;3.50;1.38;;;22.90;79.30;;;;;;4880901;29;20546;-65
2021/07/15 09:02:28;;;;;;;2.40;1.30;;;22.90;79.20;;;;;;4880745;29;20100;-65
2021/07/15 09:04:55;;;;;;;3.03;1.35;;;22.90;79.50;;;;;;4897302;29;20431;-64
2021/07/15 09:07:23;;;;;;;2.65;1.40;;;22.90;79.70;;;;;;4897339;29;20391;-65
2021/07/15 09:09:48;;;;;;;2.65;1.30;;;22.90;79.50;;;;;;4896898;29;20115;-64
2021/07/15 09:12:17;;;;;;;4.00;1.23;;;22.90;79.50;;;;;;4897422;29;20099;-65
2021/07/15 09:14:48;;;;;;;6.47;1.55;;;22.90;79.60;;;;;;4897056;29;20064;-69
2021/07/15 09:17:15;;;;;;;3.22;1.50;;;22.90;80.30;;;;;;4880415;29;20457;-65
2021/07/15 09:19:42;;;;;;;2.92;1.30;;;22.90;79.70;;;;;;4897302;29;20059;-64
2021/07/15 09:22:13;;;;;;;3.95;1.20;;;22.90;79.70;;;;;;4879957;29;20109;-65
2021/07/15 09:24:44;;;;;;;5.85;1.50;;;22.90;79.90;;;;;;4897126;29;20029;-64
2021/07/15 09:27:21;;;;;;;5.75;1.10;;;22.90;79.90;;;;;;4880331;29;20037;-66
2021/07/15 09:30:12;;;;;;;5.13;1.45;;;22.90;80.10;;;;;;4880411;29;20040;-65
2021/07/15 09:32:58;;;;;;;4.82;1.20;;;22.90;79.90;;;;;;4897147;29;20099;-67
2021/07/15 09:35:32;;;;;;;3.38;1.50;;;23.00;80.10;;;;;;4896661;29;20120;-64
2021/07/15 09:38:18;;;;;;;5.65;1.48;;;23.00;80.00;;;;;;4880185;29;20041;-64
2021/07/15 09:40:55;;;;;;;4.22;1.10;;;22.90;80.10;;;;;;4896830;29;20049;-64
2021/07/15 09:43:30;;;;;;;5.32;1.38;;;22.90;80.10;;;;;;4880242;29;20052;-67
2021/07/15 09:45:57;;;;;;;5.25;1.30;;;22.70;80.60;;;;;;4896663;29;20123;-71
2021/07/15 09:48:25;;;;;;;7.22;1.58;;;22.30;82.50;;;;;;4893581;29;20029;-70
2021/07/15 09:50:52;;;;;;;3.78;1.35;;;22.40;81.90;;;;;;4901327;29;20551;-70
2021/07/15 09:53:22;;;;;;;5.13;1.23;;;22.20;83.40;;;;;;4896257;29;20028;-70
2021/07/15 09:55:57;;;;;;;2.40;1.20;;;22.00;83.90;;;;;;4894774;29;20027;-71
2021/07/15 09:58:22;;;;;;;3.17;1.20;;;21.90;84.00;;;;;;4896846;29;20452;-70
2021/07/15 10:00:48;;;;;;;3.28;1.15;;;21.90;83.90;;;;;;4896447;29;20028;-70
2021/07/15 10:03:15;;;;;;;1.40;1.00;;;22.20;83.50;;;;;;4896545;29;20021;-71
2021/07/15 10:05:52;;;;;;;1.85;1.08;;;22.20;83.00;;;;;;4879223;29;20096;-70
2021/07/15 10:08:26;;;;;;;3.35;1.33;;;22.60;76.60;;;;;;4896233;29;20133;-70
2021/07/15 10:10:53;;;;;;;3.03;1.10;;;23.10;74.20;;;;;;4896566;29;20028;-69
2021/07/15 10:13:20;;;;;;;2.25;1.05;;;23.60;71.70;;;;;;4896459;29;20056;-70
2021/07/15 10:15:48;;;;;;;2.42;1.50;;;24.00;71.40;;;;;;4897490;29;20458;-70
2021/07/15 10:18:14;;;;;;;2.13;1.00;;;23.80;72.90;;;;;;4894910;29;20051;-70
2021/07/15 10:20:56;;;;;;;2.05;1.20;;;23.20;76.60;;;;;;4896762;29;20479;-70
2021/07/15 10:23:40;;;;;;;3.40;1.50;;;23.30;75.00;;;;;;4898398;29;20120;-71
2021/07/15 10:26:07;;;;;;;2.10;1.20;;;23.50;72.70;;;;;;4898461;29;20035;-70
2021/07/15 10:28:34;;;;;;;2.17;1.20;;;23.50;75.70;;;;;;4900352;29;20398;-71
2021/07/15 10:31:03;;;;;;;2.03;1.20;;;23.40;73.10;;;;;;4900129;29;20028;-70
2021/07/15 10:33:30;;;;;;;1.63;1.10;;;23.80;73.40;;;;;;4898909;29;20032;-70
2021/07/15 10:36:00;;;;;;;3.13;1.25;;;23.80;71.10;;;;;;4898333;29;20027;-70
2021/07/15 10:38:33;;;;;;;3.17;1.30;;;23.90;69.30;;;;;;4899967;29;20025;-71
2021/07/15 10:40:59;;;;;;;2.08;1.15;;;23.50;72.90;;;;;;4898727;29;20036;-70
2021/07/15 10:43:26;;;;;;;1.52;1.10;;;23.90;68.00;;;;;;4898531;29;20025;-70
2021/07/15 10:45:53;;;;;;;3.35;1.05;;;24.50;67.30;;;;;;4899521;29;20531;-71
2021/07/15 10:48:19;;;;;;;3.90;1.25;;;25.40;63.60;;;;;;4898927;29;20028;-70
2021/07/15 10:50:45;;;;;;;2.40;1.20;;;26.10;66.40;;;;;;4899885;29;20032;-70
2021/07/15 10:53:13;;;;;;;1.98;1.10;;;25.90;67.30;;;;;;4899660;29;20066;-71
2021/07/15 10:55:39;;;;;;;1.48;1.00;;;27.40;57.20;;;;;;4882591;29;20052;-70
2021/07/15 10:58:05;;;;;;;3.83;1.02;;;27.10;59.30;;;;;;4900007;29;20056;-70
2021/07/15 11:00:30;;;;;;;3.65;1.15;;;26.60;56.70;;;;;;4882741;29;20052;-70
2021/07/15 11:03:13;;;;;;;4.55;1.25;;;25.10;59.70;;;;;;4899748;29;20033;-70
2021/07/15 11:05:48;;;;;;;2.13;1.10;;;24.20;63.40;;;;;;4882101;29;20072;-70
2021/07/15 11:08:15;;;;;;;4.43;0.98;;;25.00;60.70;;;;;;4899484;29;20089;-70
2021/07/15 11:10:41;;;;;;;2.10;0.90;;;25.40;60.40;;;;;;4899496;29;20111;-69
2021/07/15 11:13:08;;;;;;;2.45;1.00;;;25.50;59.60;;;;;;4882629;29;20533;-70
2021/07/15 11:15:55;;;;;;;2.65;1.02;;;25.40;61.30;;;;;;4898568;29;20545;-71
2021/07/15 11:18:47;;;;;;;2.08;1.10;;;23.90;70.70;;;;;;4882568;29;20115;-70
2021/07/15 11:21:25;;;;;;;3.88;1.20;;;23.00;75.20;;;;;;4899377;29;20021;-70
2021/07/15 11:24:14;;;;;;;1.88;1.10;;;22.60;77.40;;;;;;4898873;29;20032;-70
2021/07/15 11:26:41;;;;;;;4.60;1.60;;;22.30;77.70;;;;;;4898947;29;20059;-71
2021/07/15 11:29:12;;;;;;;2.92;1.15;;;22.40;77.90;;;;;;4899246;29;20028;-70
2021/07/15 11:31:50;;;;;;;2.65;1.20;;;22.40;77.60;;;;;;4881872;29;20029;-70
2021/07/15 11:34:39;;;;;;;2.25;1.02;;;22.60;77.60;;;;;;4878046;29;20112;-70
2021/07/15 11:37:25;;;;;;;1.55;1.00;;;22.90;75.80;;;;;;4878599;29;20028;-70
2021/07/15 11:39:52;;;;;;;5.28;1.35;;;22.90;76.60;;;;;;4870870;29;20429;-70
2021/07/15 11:42:22;;;;;;;2.72;1.17;;;22.60;78.30;;;;;;4880199;29;20028;-70
2021/07/15 11:45:04;;;;;;;1.40;0.95;;;22.80;76.60;;;;;;4876695;29;20028;-70
2021/07/15 11:47:50;;;;;;;2.60;1.20;;;22.60;77.00;;;;;;4898852;29;20092;-70
2021/07/15 11:50:33;;;;;;;2.28;1.23;;;22.40;78.50;;;;;;4898780;29;20021;-70
2021/07/15 11:53:17;;;;;;;3.05;1.20;;;22.30;79.30;;;;;;4898814;29;20104;-71
2021/07/15 11:55:45;;;;;;;1.70;0.95;;;22.20;79.20;;;;;;4881532;29;20123;-70
2021/07/15 11:58:38;;;;;;;1.58;0.95;;;22.40;79.50;;;;;;4897537;29;20517;-71
2021/07/15 12:01:18;;;;;;;1.65;1.05;;;22.80;80.20;;;;;;4898629;29;20029;-71
2021/07/15 12:04:02;;;;;;;3.30;1.20;;;23.10;76.00;;;;;;4898349;29;20020;-71
2021/07/15 12:06:30;;;;;;;1.58;1.08;;;22.70;77.90;;;;;;4896928;29;20033;-70
2021/07/15 12:09:10;;;;;;;1.73;1.10;;;22.60;78.30;;;;;;4881564;29;20049;-70
2021/07/15 12:11:37;;;;;;;3.13;1.10;;;23.30;73.20;;;;;;4898585;29;20039;-70
2021/07/15 12:14:04;;;;;;;2.55;1.10;;;24.00;67.10;;;;;;4881454;29;20086;-70
2021/07/15 12:16:32;;;;;;;2.30;1.10;;;24.50;70.70;;;;;;4881464;29;20111;-70
2021/07/15 12:19:15;;;;;;;1.95;1.08;;;23.80;73.20;;;;;;4881720;29;20024;-70
2021/07/15 12:21:41;;;;;;;1.75;1.20;;;23.80;69.10;;;;;;4898442;29;20025;-69
2021/07/15 12:24:11;;;;;;;2.97;1.20;;;24.40;70.70;;;;;;4897796;29;20505;-71
2021/07/15 12:26:37;;;;;;;5.35;1.20;;;24.10;72.30;;;;;;4881356;29;20036;-71
2021/07/15 12:29:06;;;;;;;5.82;1.40;;;23.00;77.10;;;;;;4881484;29;20039;-70
2021/07/15 12:31:32;;;;;;;3.28;1.20;;;22.70;78.70;;;;;;4898242;29;20035;-70
2021/07/15 12:34:06;;;;;;;2.25;1.20;;;22.60;79.10;;;;;;4898171;29;20040;-71
2021/07/15 12:36:35;;;;;;;2.08;1.15;;;22.50;79.70;;;;;;4897680;29;20025;-71
2021/07/15 12:39:04;;;;;;;4.47;1.20;;;22.40;79.50;;;;;;4881561;29;20395;-70
2021/07/15 12:41:33;;;;;;;2.58;1.08;;;22.50;78.90;;;;;;4881213;29;20479;-70
2021/07/15 12:44:09;;;;;;;1.98;1.20;;;22.40;79.00;;;;;;4880419;29;20040;-70
2021/07/15 12:46:37;;;;;;;2.90;1.30;;;22.50;79.00;;;;;;4879847;29;20399;-71
2021/07/15 12:49:10;;;;;;;2.78;1.20;;;22.70;78.00;;;;;;4897081;29;20032;-70
2021/07/15 12:51:47;;;;;;;3.00;1.33;;;22.50;79.00;;;;;;4878851;29;20399;-70
2021/07/15 12:54:20;;;;;;;3.17;1.13;;;22.40;79.30;;;;;;4877271;29;20104;-71
2021/07/15 12:56:46;;;;;;;4.00;1.20;;;23.40;76.10;;;;;;4876903;29;20025;-71
2021/07/15 12:59:13;;;;;;;3.92;1.20;;;22.70;78.70;;;;;;4870919;29;20420;-70